sensor_id;sensor_type;location;lat;lon;timestamp;temperature;humidity
66962;HTU21D;53897;51.126;5.868;2022-07-19T00:01:35;26.80;45.66
66962;HTU21D;53897;51.126;5.868;2022-07-19T00:04:01;26.79;45.68
66962;HTU21D;53897;51.126;5.868;2022-07-19T00:06:27;26.77;45.71
66962;HTU21D;53897;51.126;5.868;2022-07-19T00:08:53;26.76;45.72
66962;HTU21D;53897;51.126;5.868;2022-07-19T00:11:19;26.75;45.80
66962;HTU21D;53897;51.126;5.868;2022-07-19T00:13:45;26.73;45.85
66962;HTU21D;53897;51.126;5.868;2022-07-19T00:16:11;26.73;45.91
66962;HTU21D;53897;51.126;5.868;2022-07-19T00:18:36;26.72;45.93
66962;HTU21D;53897;51.126;5.868;2022-07-19T00:21:02;26.72;45.92
66962;HTU21D;53897;51.126;5.868;2022-07-19T00:23:28;26.70;45.96
66962;HTU21D;53897;51.126;5.868;2022-07-19T00:25:54;26.71;46.01
66962;HTU21D;53897;51.126;5.868;2022-07-19T00:28:20;26.68;46.06
66962;HTU21D;53897;51.126;5.868;2022-07-19T00:30:45;26.68;46.12
66962;HTU21D;53897;51.126;5.868;2022-07-19T00:33:11;26.68;46.18
66962;HTU21D;53897;51.126;5.868;2022-07-19T00:35:38;26.66;46.19
66962;HTU21D;53897;51.126;5.868;2022-07-19T00:38:05;26.65;46.19
66962;HTU21D;53897;51.126;5.868;2022-07-19T00:40:32;26.65;46.22
66962;HTU21D;53897;51.126;5.868;2022-07-19T00:42:58;26.64;46.23
66962;HTU21D;53897;51.126;5.868;2022-07-19T00:45:23;26.63;46.24
66962;HTU21D;53897;51.126;5.868;2022-07-19T00:47:50;26.62;46.26
66962;HTU21D;53897;51.126;5.868;2022-07-19T00:50:16;26.61;46.28
66962;HTU21D;53897;51.126;5.868;2022-07-19T00:52:46;26.60;46.35
66962;HTU21D;53897;51.126;5.868;2022-07-19T00:55:17;26.60;46.37
66962;HTU21D;53897;51.126;5.868;2022-07-19T00:57:45;26.58;46.42
66962;HTU21D;53897;51.126;5.868;2022-07-19T01:00:12;26.57;46.45
66962;HTU21D;53897;51.126;5.868;2022-07-19T01:02:39;26.55;46.52
66962;HTU21D;53897;51.126;5.868;2022-07-19T01:05:09;26.55;46.56
66962;HTU21D;53897;51.126;5.868;2022-07-19T01:07:35;26.54;46.59
66962;HTU21D;53897;51.126;5.868;2022-07-19T01:10:07;26.53;46.63
66962;HTU21D;53897;51.126;5.868;2022-07-19T01:12:34;26.52;46.67
66962;HTU21D;53897;51.126;5.868;2022-07-19T01:15:01;26.52;46.70
66962;HTU21D;53897;51.126;5.868;2022-07-19T01:17:27;26.50;46.73
66962;HTU21D;53897;51.126;5.868;2022-07-19T01:19:53;26.51;46.75
66962;HTU21D;53897;51.126;5.868;2022-07-19T01:22:19;26.49;46.78
66962;HTU21D;53897;51.126;5.868;2022-07-19T01:24:45;26.48;46.81
66962;HTU21D;53897;51.126;5.868;2022-07-19T01:27:11;26.47;46.83
66962;HTU21D;53897;51.126;5.868;2022-07-19T01:29:37;26.47;46.85
66962;HTU21D;53897;51.126;5.868;2022-07-19T01:32:04;26.46;46.88
66962;HTU21D;53897;51.126;5.868;2022-07-19T01:34:30;26.43;46.94
66962;HTU21D;53897;51.126;5.868;2022-07-19T01:36:56;26.43;46.96
66962;HTU21D;53897;51.126;5.868;2022-07-19T01:39:22;26.45;46.99
66962;HTU21D;53897;51.126;5.868;2022-07-19T01:41:49;26.42;46.99
66962;HTU21D;53897;51.126;5.868;2022-07-19T01:44:15;26.41;47.02
66962;HTU21D;53897;51.126;5.868;2022-07-19T01:46:41;26.40;47.05
66962;HTU21D;53897;51.126;5.868;2022-07-19T01:49:06;26.40;47.09
66962;HTU21D;53897;51.126;5.868;2022-07-19T01:51:32;26.39;47.07
66962;HTU21D;53897;51.126;5.868;2022-07-19T01:53:58;26.37;47.09
66962;HTU21D;53897;51.126;5.868;2022-07-19T01:56:24;26.39;47.05
66962;HTU21D;53897;51.126;5.868;2022-07-19T01:58:50;26.37;47.10
66962;HTU21D;53897;51.126;5.868;2022-07-19T02:01:15;26.36;47.12
66962;HTU21D;53897;51.126;5.868;2022-07-19T02:03:41;26.34;47.13
66962;HTU21D;53897;51.126;5.868;2022-07-19T02:06:07;26.33;47.16
66962;HTU21D;53897;51.126;5.868;2022-07-19T02:08:33;26.33;47.19
66962;HTU21D;53897;51.126;5.868;2022-07-19T02:10:59;26.32;47.22
66962;HTU21D;53897;51.126;5.868;2022-07-19T02:13:25;26.28;47.22
66962;HTU21D;53897;51.126;5.868;2022-07-19T02:15:51;26.28;47.22
66962;HTU21D;53897;51.126;5.868;2022-07-19T02:18:17;26.27;47.22
66962;HTU21D;53897;51.126;5.868;2022-07-19T02:20:43;26.27;47.22
66962;HTU21D;53897;51.126;5.868;2022-07-19T02:23:08;26.26;47.22
66962;HTU21D;53897;51.126;5.868;2022-07-19T02:25:34;26.25;47.22
66962;HTU21D;53897;51.126;5.868;2022-07-19T02:28:00;26.25;47.22
66962;HTU21D;53897;51.126;5.868;2022-07-19T02:30:27;26.23;47.21
66962;HTU21D;53897;51.126;5.868;2022-07-19T02:32:53;26.23;47.18
66962;HTU21D;53897;51.126;5.868;2022-07-19T02:35:19;26.22;47.17
66962;HTU21D;53897;51.126;5.868;2022-07-19T02:37:44;26.23;47.15
66962;HTU21D;53897;51.126;5.868;2022-07-19T02:40:11;26.22;47.15
66962;HTU21D;53897;51.126;5.868;2022-07-19T02:42:37;26.22;47.09
66962;HTU21D;53897;51.126;5.868;2022-07-19T02:45:03;26.20;47.08
66962;HTU21D;53897;51.126;5.868;2022-07-19T02:47:30;26.20;47.06
66962;HTU21D;53897;51.126;5.868;2022-07-19T02:49:56;26.18;47.04
66962;HTU21D;53897;51.126;5.868;2022-07-19T02:52:21;26.17;47.01
66962;HTU21D;53897;51.126;5.868;2022-07-19T02:54:47;26.19;46.99
66962;HTU21D;53897;51.126;5.868;2022-07-19T02:57:13;26.17;46.95
66962;HTU21D;53897;51.126;5.868;2022-07-19T02:59:39;26.16;46.90
66962;HTU21D;53897;51.126;5.868;2022-07-19T03:02:04;26.15;46.84
66962;HTU21D;53897;51.126;5.868;2022-07-19T03:04:30;26.13;46.82
66962;HTU21D;53897;51.126;5.868;2022-07-19T03:06:56;26.12;46.80
66962;HTU21D;53897;51.126;5.868;2022-07-19T03:09:21;26.11;46.80
66962;HTU21D;53897;51.126;5.868;2022-07-19T03:11:47;26.11;46.77
66962;HTU21D;53897;51.126;5.868;2022-07-19T03:14:13;26.11;46.74
66962;HTU21D;53897;51.126;5.868;2022-07-19T03:16:39;26.11;46.70
66962;HTU21D;53897;51.126;5.868;2022-07-19T03:19:04;26.08;46.67
66962;HTU21D;53897;51.126;5.868;2022-07-19T03:21:30;26.10;46.63
66962;HTU21D;53897;51.126;5.868;2022-07-19T03:23:56;26.08;46.60
66962;HTU21D;53897;51.126;5.868;2022-07-19T03:26:22;26.07;46.47
66962;HTU21D;53897;51.126;5.868;2022-07-19T03:28:47;26.07;46.41
66962;HTU21D;53897;51.126;5.868;2022-07-19T03:31:13;26.05;46.41
66962;HTU21D;53897;51.126;5.868;2022-07-19T03:33:39;26.03;46.41
66962;HTU21D;53897;51.126;5.868;2022-07-19T03:36:04;26.03;46.42
66962;HTU21D;53897;51.126;5.868;2022-07-19T03:38:30;26.01;46.41
66962;HTU21D;53897;51.126;5.868;2022-07-19T03:40:56;25.99;46.38
66962;HTU21D;53897;51.126;5.868;2022-07-19T03:43:22;25.97;46.37
66962;HTU21D;53897;51.126;5.868;2022-07-19T03:45:49;25.97;46.37
66962;HTU21D;53897;51.126;5.868;2022-07-19T03:48:14;25.91;46.28
66962;HTU21D;53897;51.126;5.868;2022-07-19T03:50:41;25.76;46.56
66962;HTU21D;53897;51.126;5.868;2022-07-19T03:53:07;25.60;46.88
66962;HTU21D;53897;51.126;5.868;2022-07-19T03:55:33;25.44;46.85
66962;HTU21D;53897;51.126;5.868;2022-07-19T03:57:59;25.27;46.76
66962;HTU21D;53897;51.126;5.868;2022-07-19T04:00:25;25.12;47.10
66962;HTU21D;53897;51.126;5.868;2022-07-19T04:02:51;24.95;47.52
66962;HTU21D;53897;51.126;5.868;2022-07-19T04:05:16;24.82;48.04
66962;HTU21D;53897;51.126;5.868;2022-07-19T04:07:42;24.62;48.20
66962;HTU21D;53897;51.126;5.868;2022-07-19T04:10:08;24.47;48.53
66962;HTU21D;53897;51.126;5.868;2022-07-19T04:12:34;24.32;48.79
66962;HTU21D;53897;51.126;5.868;2022-07-19T04:15:00;24.19;49.29
66962;HTU21D;53897;51.126;5.868;2022-07-19T04:17:26;24.09;49.81
66962;HTU21D;53897;51.126;5.868;2022-07-19T04:19:52;24.01;50.31
66962;HTU21D;53897;51.126;5.868;2022-07-19T04:22:18;23.96;50.66
66962;HTU21D;53897;51.126;5.868;2022-07-19T04:24:44;23.96;50.79
66962;HTU21D;53897;51.126;5.868;2022-07-19T04:27:10;23.99;50.74
66962;HTU21D;53897;51.126;5.868;2022-07-19T04:29:35;24.03;50.60
66962;HTU21D;53897;51.126;5.868;2022-07-19T04:32:01;24.08;50.44
66962;HTU21D;53897;51.126;5.868;2022-07-19T04:34:27;24.13;50.30
66962;HTU21D;53897;51.126;5.868;2022-07-19T04:36:53;24.17;50.14
66962;HTU21D;53897;51.126;5.868;2022-07-19T04:39:19;24.23;50.02
66962;HTU21D;53897;51.126;5.868;2022-07-19T04:41:44;24.26;49.90
66962;HTU21D;53897;51.126;5.868;2022-07-19T04:44:10;24.31;49.76
66962;HTU21D;53897;51.126;5.868;2022-07-19T04:46:36;24.36;49.69
66962;HTU21D;53897;51.126;5.868;2022-07-19T04:49:01;24.41;49.66
66962;HTU21D;53897;51.126;5.868;2022-07-19T04:51:27;24.43;49.65
66962;HTU21D;53897;51.126;5.868;2022-07-19T04:53:53;24.48;49.61
66962;HTU21D;53897;51.126;5.868;2022-07-19T04:56:19;24.50;49.54
66962;HTU21D;53897;51.126;5.868;2022-07-19T04:58:44;24.54;49.44
66962;HTU21D;53897;51.126;5.868;2022-07-19T05:01:10;24.56;49.38
66962;HTU21D;53897;51.126;5.868;2022-07-19T05:03:36;24.60;49.36
66962;HTU21D;53897;51.126;5.868;2022-07-19T05:06:02;24.64;49.33
66962;HTU21D;53897;51.126;5.868;2022-07-19T05:08:27;24.65;49.24
66962;HTU21D;53897;51.126;5.868;2022-07-19T05:10:53;24.70;49.21
66962;HTU21D;53897;51.126;5.868;2022-07-19T05:13:19;24.73;49.11
66962;HTU21D;53897;51.126;5.868;2022-07-19T05:15:44;24.77;49.05
66962;HTU21D;53897;51.126;5.868;2022-07-19T05:18:10;24.80;49.02
66962;HTU21D;53897;51.126;5.868;2022-07-19T05:20:36;24.84;48.92
66962;HTU21D;53897;51.126;5.868;2022-07-19T05:23:02;24.86;48.76
66962;HTU21D;53897;51.126;5.868;2022-07-19T05:25:27;24.89;48.60
66962;HTU21D;53897;51.126;5.868;2022-07-19T05:27:53;24.91;48.48
66962;HTU21D;53897;51.126;5.868;2022-07-19T05:30:21;24.94;48.48
66962;HTU21D;53897;51.126;5.868;2022-07-19T05:32:47;24.93;48.63
66962;HTU21D;53897;51.126;5.868;2022-07-19T05:35:12;24.92;48.72
66962;HTU21D;53897;51.126;5.868;2022-07-19T05:37:38;24.93;48.68
66962;HTU21D;53897;51.126;5.868;2022-07-19T05:40:04;24.97;48.60
66962;HTU21D;53897;51.126;5.868;2022-07-19T05:42:30;25.00;48.45
66962;HTU21D;53897;51.126;5.868;2022-07-19T05:44:56;25.04;48.31
66962;HTU21D;53897;51.126;5.868;2022-07-19T05:47:22;25.07;48.31
66962;HTU21D;53897;51.126;5.868;2022-07-19T05:49:47;25.09;48.23
66962;HTU21D;53897;51.126;5.868;2022-07-19T05:52:13;25.13;48.12
66962;HTU21D;53897;51.126;5.868;2022-07-19T05:54:39;25.15;48.01
66962;HTU21D;53897;51.126;5.868;2022-07-19T05:57:05;25.18;47.91
66962;HTU21D;53897;51.126;5.868;2022-07-19T05:59:31;25.21;47.83
66962;HTU21D;53897;51.126;5.868;2022-07-19T06:01:58;25.22;47.78
66962;HTU21D;53897;51.126;5.868;2022-07-19T06:04:24;25.24;47.76
66962;HTU21D;53897;51.126;5.868;2022-07-19T06:06:50;25.27;47.83
66962;HTU21D;53897;51.126;5.868;2022-07-19T06:09:15;25.28;47.83
66962;HTU21D;53897;51.126;5.868;2022-07-19T06:11:41;25.30;47.82
66962;HTU21D;53897;51.126;5.868;2022-07-19T06:14:07;25.30;47.79
66962;HTU21D;53897;51.126;5.868;2022-07-19T06:16:38;25.33;47.73
66962;HTU21D;53897;51.126;5.868;2022-07-19T06:19:06;25.34;47.66
66962;HTU21D;53897;51.126;5.868;2022-07-19T06:21:33;25.36;47.63
66962;HTU21D;53897;51.126;5.868;2022-07-19T06:23:59;25.38;47.60
66962;HTU21D;53897;51.126;5.868;2022-07-19T06:26:25;25.39;47.52
66962;HTU21D;53897;51.126;5.868;2022-07-19T06:28:53;25.43;47.50
66962;HTU21D;53897;51.126;5.868;2022-07-19T06:31:18;25.43;47.46
66962;HTU21D;53897;51.126;5.868;2022-07-19T06:33:48;25.45;47.41
66962;HTU21D;53897;51.126;5.868;2022-07-19T06:36:15;25.45;47.41
66962;HTU21D;53897;51.126;5.868;2022-07-19T06:38:41;25.46;47.35
66962;HTU21D;53897;51.126;5.868;2022-07-19T06:41:09;25.49;47.34
66962;HTU21D;53897;51.126;5.868;2022-07-19T06:43:35;25.50;47.35
66962;HTU21D;53897;51.126;5.868;2022-07-19T06:46:01;25.49;47.33
66962;HTU21D;53897;51.126;5.868;2022-07-19T06:48:27;25.51;47.28
66962;HTU21D;53897;51.126;5.868;2022-07-19T06:50:53;25.53;47.22
66962;HTU21D;53897;51.126;5.868;2022-07-19T06:53:19;25.56;47.15
66962;HTU21D;53897;51.126;5.868;2022-07-19T06:55:45;25.56;47.12
66962;HTU21D;53897;51.126;5.868;2022-07-19T06:58:11;25.58;47.07
66962;HTU21D;53897;51.126;5.868;2022-07-19T07:00:37;25.58;47.05
66962;HTU21D;53897;51.126;5.868;2022-07-19T07:03:03;25.60;46.99
66962;HTU21D;53897;51.126;5.868;2022-07-19T07:05:29;25.60;46.94
66962;HTU21D;53897;51.126;5.868;2022-07-19T07:07:54;25.62;46.97
66962;HTU21D;53897;51.126;5.868;2022-07-19T07:10:21;25.62;47.00
66962;HTU21D;53897;51.126;5.868;2022-07-19T07:12:47;25.63;47.00
66962;HTU21D;53897;51.126;5.868;2022-07-19T07:15:13;25.63;46.99
66962;HTU21D;53897;51.126;5.868;2022-07-19T07:17:39;25.65;46.93
66962;HTU21D;53897;51.126;5.868;2022-07-19T07:20:06;25.65;46.86
66962;HTU21D;53897;51.126;5.868;2022-07-19T07:22:33;25.68;46.83
66962;HTU21D;53897;51.126;5.868;2022-07-19T07:24:59;25.66;46.88
66962;HTU21D;53897;51.126;5.868;2022-07-19T07:27:25;25.64;47.02
66962;HTU21D;53897;51.126;5.868;2022-07-19T07:29:51;25.61;47.16
66962;HTU21D;53897;51.126;5.868;2022-07-19T07:32:17;25.58;47.26
66962;HTU21D;53897;51.126;5.868;2022-07-19T07:34:44;25.56;47.34
66962;HTU21D;53897;51.126;5.868;2022-07-19T07:37:10;25.52;47.41
66962;HTU21D;53897;51.126;5.868;2022-07-19T07:39:36;25.50;47.52
66962;HTU21D;53897;51.126;5.868;2022-07-19T07:42:02;25.51;47.49
66962;HTU21D;53897;51.126;5.868;2022-07-19T07:44:29;25.54;47.36
66962;HTU21D;53897;51.126;5.868;2022-07-19T07:46:55;25.59;47.29
66962;HTU21D;53897;51.126;5.868;2022-07-19T07:49:21;25.62;47.24
66962;HTU21D;53897;51.126;5.868;2022-07-19T07:51:47;25.66;47.16
66962;HTU21D;53897;51.126;5.868;2022-07-19T07:54:13;25.67;47.08
66962;HTU21D;53897;51.126;5.868;2022-07-19T07:56:39;25.72;47.00
66962;HTU21D;53897;51.126;5.868;2022-07-19T07:59:05;25.73;46.93
66962;HTU21D;53897;51.126;5.868;2022-07-19T08:01:30;25.75;46.89
66962;HTU21D;53897;51.126;5.868;2022-07-19T08:03:57;25.77;46.84
66962;HTU21D;53897;51.126;5.868;2022-07-19T08:06:22;25.78;46.83
66962;HTU21D;53897;51.126;5.868;2022-07-19T08:08:48;25.80;46.79
66962;HTU21D;53897;51.126;5.868;2022-07-19T08:11:14;25.81;46.76
66962;HTU21D;53897;51.126;5.868;2022-07-19T08:13:40;25.81;46.73
66962;HTU21D;53897;51.126;5.868;2022-07-19T08:16:06;25.83;46.70
66962;HTU21D;53897;51.126;5.868;2022-07-19T08:18:33;25.83;46.69
66962;HTU21D;53897;51.126;5.868;2022-07-19T08:20:59;25.84;46.66
66962;HTU21D;53897;51.126;5.868;2022-07-19T08:23:25;25.87;46.64
66962;HTU21D;53897;51.126;5.868;2022-07-19T08:25:51;25.88;46.65
66962;HTU21D;53897;51.126;5.868;2022-07-19T08:28:16;25.86;46.79
66962;HTU21D;53897;51.126;5.868;2022-07-19T08:30:42;25.83;46.92
66962;HTU21D;53897;51.126;5.868;2022-07-19T08:33:08;25.78;47.03
66962;HTU21D;53897;51.126;5.868;2022-07-19T08:35:36;25.77;47.13
66962;HTU21D;53897;51.126;5.868;2022-07-19T08:38:02;25.73;47.22
66962;HTU21D;53897;51.126;5.868;2022-07-19T08:40:33;25.73;47.30
66962;HTU21D;53897;51.126;5.868;2022-07-19T08:43:03;25.74;47.30
66962;HTU21D;53897;51.126;5.868;2022-07-19T08:45:30;25.75;47.31
66962;HTU21D;53897;51.126;5.868;2022-07-19T08:47:57;25.77;47.26
66962;HTU21D;53897;51.126;5.868;2022-07-19T08:50:25;25.80;47.15
66962;HTU21D;53897;51.126;5.868;2022-07-19T08:52:52;25.83;47.13
66962;HTU21D;53897;51.126;5.868;2022-07-19T08:55:18;25.87;47.04
66962;HTU21D;53897;51.126;5.868;2022-07-19T08:57:44;25.89;46.95
66962;HTU21D;53897;51.126;5.868;2022-07-19T09:00:30;25.93;46.84
66962;HTU21D;53897;51.126;5.868;2022-07-19T09:03:07;25.95;46.76
66962;HTU21D;53897;51.126;5.868;2022-07-19T09:05:34;25.97;46.70
66962;HTU21D;53897;51.126;5.868;2022-07-19T09:10:29;26.01;46.63
66962;HTU21D;53897;51.126;5.868;2022-07-19T09:13:02;26.03;46.58
66962;HTU21D;53897;51.126;5.868;2022-07-19T09:15:51;26.06;46.50
66962;HTU21D;53897;51.126;5.868;2022-07-19T09:18:23;26.07;46.47
66962;HTU21D;53897;51.126;5.868;2022-07-19T09:20:53;26.07;46.44
66962;HTU21D;53897;51.126;5.868;2022-07-19T09:23:20;26.09;46.41
66962;HTU21D;53897;51.126;5.868;2022-07-19T09:25:49;26.09;46.59
66962;HTU21D;53897;51.126;5.868;2022-07-19T09:28:17;26.06;46.73
66962;HTU21D;53897;51.126;5.868;2022-07-19T09:30:49;26.05;46.83
66962;HTU21D;53897;51.126;5.868;2022-07-19T09:33:21;26.04;46.93
66962;HTU21D;53897;51.126;5.868;2022-07-19T09:35:53;26.02;47.01
66962;HTU21D;53897;51.126;5.868;2022-07-19T09:38:23;26.02;46.99
66962;HTU21D;53897;51.126;5.868;2022-07-19T09:40:52;26.06;46.92
66962;HTU21D;53897;51.126;5.868;2022-07-19T09:43:19;26.09;46.81
66962;HTU21D;53897;51.126;5.868;2022-07-19T09:45:45;26.11;46.74
66962;HTU21D;53897;51.126;5.868;2022-07-19T09:48:12;26.13;46.68
66962;HTU21D;53897;51.126;5.868;2022-07-19T09:50:38;26.15;46.65
66962;HTU21D;53897;51.126;5.868;2022-07-19T09:53:05;26.16;46.60
66962;HTU21D;53897;51.126;5.868;2022-07-19T09:55:32;26.19;46.57
66962;HTU21D;53897;51.126;5.868;2022-07-19T09:57:59;26.21;46.58
66962;HTU21D;53897;51.126;5.868;2022-07-19T10:00:27;26.23;46.53
66962;HTU21D;53897;51.126;5.868;2022-07-19T10:02:58;26.25;46.54
66962;HTU21D;53897;51.126;5.868;2022-07-19T10:05:26;26.27;46.54
66962;HTU21D;53897;51.126;5.868;2022-07-19T10:07:52;26.28;46.51
66962;HTU21D;53897;51.126;5.868;2022-07-19T10:10:20;26.31;46.51
66962;HTU21D;53897;51.126;5.868;2022-07-19T10:12:49;26.32;46.54
66962;HTU21D;53897;51.126;5.868;2022-07-19T10:15:18;26.33;46.56
66962;HTU21D;53897;51.126;5.868;2022-07-19T10:20:26;26.37;46.55
66962;HTU21D;53897;51.126;5.868;2022-07-19T10:22:52;26.38;46.63
66962;HTU21D;53897;51.126;5.868;2022-07-19T10:25:19;26.39;46.61
66962;HTU21D;53897;51.126;5.868;2022-07-19T10:27:51;26.40;46.56
66962;HTU21D;53897;51.126;5.868;2022-07-19T10:30:23;26.42;46.55
66962;HTU21D;53897;51.126;5.868;2022-07-19T10:32:52;26.43;46.56
66962;HTU21D;53897;51.126;5.868;2022-07-19T10:35:31;26.46;46.56
66962;HTU21D;53897;51.126;5.868;2022-07-19T10:40:44;26.50;46.60
66962;HTU21D;53897;51.126;5.868;2022-07-19T10:43:11;26.50;46.58
66962;HTU21D;53897;51.126;5.868;2022-07-19T10:45:40;26.52;46.59
66962;HTU21D;53897;51.126;5.868;2022-07-19T10:48:12;26.52;46.60
66962;HTU21D;53897;51.126;5.868;2022-07-19T10:50:50;26.54;46.59
66962;HTU21D;53897;51.126;5.868;2022-07-19T10:56:23;26.57;46.63
66962;HTU21D;53897;51.126;5.868;2022-07-19T10:58:55;26.58;46.64
66962;HTU21D;53897;51.126;5.868;2022-07-19T11:01:23;26.58;46.67
66962;HTU21D;53897;51.126;5.868;2022-07-19T11:03:51;26.60;46.66
66962;HTU21D;53897;51.126;5.868;2022-07-19T11:06:23;26.62;46.68
66962;HTU21D;53897;51.126;5.868;2022-07-19T11:08:53;26.63;46.68
66962;HTU21D;53897;51.126;5.868;2022-07-19T11:11:19;26.65;46.70
66962;HTU21D;53897;51.126;5.868;2022-07-19T11:13:48;26.67;46.68
66962;HTU21D;53897;51.126;5.868;2022-07-19T11:16:14;26.67;46.73
66962;HTU21D;53897;51.126;5.868;2022-07-19T11:18:40;26.68;46.80
66962;HTU21D;53897;51.126;5.868;2022-07-19T11:21:10;26.68;46.99
66962;HTU21D;53897;51.126;5.868;2022-07-19T11:23:39;26.69;47.20
66962;HTU21D;53897;51.126;5.868;2022-07-19T11:26:17;26.70;47.28
66962;HTU21D;53897;51.126;5.868;2022-07-19T11:28:47;26.71;47.38
66962;HTU21D;53897;51.126;5.868;2022-07-19T11:31:21;26.75;47.38
66962;HTU21D;53897;51.126;5.868;2022-07-19T11:33:48;26.76;47.31
66962;HTU21D;53897;51.126;5.868;2022-07-19T11:36:16;26.79;47.29
66962;HTU21D;53897;51.126;5.868;2022-07-19T11:38:43;26.79;47.26
66962;HTU21D;53897;51.126;5.868;2022-07-19T11:41:14;26.82;47.22
66962;HTU21D;53897;51.126;5.868;2022-07-19T11:43:41;26.83;47.21
66962;HTU21D;53897;51.126;5.868;2022-07-19T11:46:07;26.84;47.22
66962;HTU21D;53897;51.126;5.868;2022-07-19T11:48:33;26.86;47.24
66962;HTU21D;53897;51.126;5.868;2022-07-19T11:53:24;26.89;47.24
66962;HTU21D;53897;51.126;5.868;2022-07-19T11:55:50;26.90;47.18
66962;HTU21D;53897;51.126;5.868;2022-07-19T11:58:16;26.92;47.15
66962;HTU21D;53897;51.126;5.868;2022-07-19T12:00:42;26.94;47.10
66962;HTU21D;53897;51.126;5.868;2022-07-19T12:03:17;26.95;47.11
66962;HTU21D;53897;51.126;5.868;2022-07-19T12:06:04;26.94;47.09
66962;HTU21D;53897;51.126;5.868;2022-07-19T12:08:36;26.97;47.10
66962;HTU21D;53897;51.126;5.868;2022-07-19T12:11:24;26.98;47.10
66962;HTU21D;53897;51.126;5.868;2022-07-19T12:13:53;26.99;47.07
66962;HTU21D;53897;51.126;5.868;2022-07-19T12:16:22;27.01;47.05
66962;HTU21D;53897;51.126;5.868;2022-07-19T12:18:56;27.02;47.05
66962;HTU21D;53897;51.126;5.868;2022-07-19T12:24:22;27.06;47.05
66962;HTU21D;53897;51.126;5.868;2022-07-19T12:29:20;27.06;47.02
66962;HTU21D;53897;51.126;5.868;2022-07-19T12:31:48;27.07;47.02
66962;HTU21D;53897;51.126;5.868;2022-07-19T12:34:15;27.10;47.05
66962;HTU21D;53897;51.126;5.868;2022-07-19T12:36:41;27.11;47.06
66962;HTU21D;53897;51.126;5.868;2022-07-19T12:39:37;27.12;47.07
66962;HTU21D;53897;51.126;5.868;2022-07-19T12:42:06;27.13;47.07
66962;HTU21D;53897;51.126;5.868;2022-07-19T12:44:34;27.15;47.05
66962;HTU21D;53897;51.126;5.868;2022-07-19T12:47:01;27.16;47.12
66962;HTU21D;53897;51.126;5.868;2022-07-19T12:49:41;27.16;47.13
66962;HTU21D;53897;51.126;5.868;2022-07-19T12:52:07;27.21;47.18
66962;HTU21D;53897;51.126;5.868;2022-07-19T12:54:33;27.21;47.20
66962;HTU21D;53897;51.126;5.868;2022-07-19T12:56:59;27.22;47.20
66962;HTU21D;53897;51.126;5.868;2022-07-19T12:59:24;27.23;47.21
66962;HTU21D;53897;51.126;5.868;2022-07-19T13:02:11;27.26;47.22
66962;HTU21D;53897;51.126;5.868;2022-07-19T13:04:39;27.26;47.25
66962;HTU21D;53897;51.126;5.868;2022-07-19T13:07:06;27.28;47.23
66962;HTU21D;53897;51.126;5.868;2022-07-19T13:09:33;27.29;47.21
66962;HTU21D;53897;51.126;5.868;2022-07-19T13:12:00;27.30;47.21
66962;HTU21D;53897;51.126;5.868;2022-07-19T13:14:27;27.32;47.28
66962;HTU21D;53897;51.126;5.868;2022-07-19T13:16:53;27.34;47.29
66962;HTU21D;53897;51.126;5.868;2022-07-19T13:19:20;27.36;47.29
66962;HTU21D;53897;51.126;5.868;2022-07-19T13:21:46;27.37;47.28
66962;HTU21D;53897;51.126;5.868;2022-07-19T13:24:11;27.38;47.33
66962;HTU21D;53897;51.126;5.868;2022-07-19T13:26:37;27.40;47.34
66962;HTU21D;53897;51.126;5.868;2022-07-19T13:29:03;27.40;47.31
66962;HTU21D;53897;51.126;5.868;2022-07-19T13:31:29;27.42;47.34
66962;HTU21D;53897;51.126;5.868;2022-07-19T13:33:55;27.44;47.35
66962;HTU21D;53897;51.126;5.868;2022-07-19T13:36:21;27.45;47.34
66962;HTU21D;53897;51.126;5.868;2022-07-19T13:38:47;27.46;47.43
66962;HTU21D;53897;51.126;5.868;2022-07-19T13:41:14;27.49;47.40
66962;HTU21D;53897;51.126;5.868;2022-07-19T13:43:41;27.50;47.38
66962;HTU21D;53897;51.126;5.868;2022-07-19T13:46:06;27.51;47.37
66962;HTU21D;53897;51.126;5.868;2022-07-19T13:48:32;27.53;47.36
66962;HTU21D;53897;51.126;5.868;2022-07-19T13:50:58;27.54;47.37
66962;HTU21D;53897;51.126;5.868;2022-07-19T13:53:24;27.56;47.38
66962;HTU21D;53897;51.126;5.868;2022-07-19T13:55:49;27.57;47.37
66962;HTU21D;53897;51.126;5.868;2022-07-19T13:58:15;27.58;47.34
66962;HTU21D;53897;51.126;5.868;2022-07-19T14:00:42;27.60;47.31
66962;HTU21D;53897;51.126;5.868;2022-07-19T14:03:15;27.60;47.31
66962;HTU21D;53897;51.126;5.868;2022-07-19T14:05:47;27.60;47.37
66962;HTU21D;53897;51.126;5.868;2022-07-19T14:08:14;27.63;47.36
66962;HTU21D;53897;51.126;5.868;2022-07-19T14:10:41;27.65;47.37
66962;HTU21D;53897;51.126;5.868;2022-07-19T14:13:08;27.64;47.39
66962;HTU21D;53897;51.126;5.868;2022-07-19T14:15:34;27.66;47.44
66962;HTU21D;53897;51.126;5.868;2022-07-19T14:18:00;27.68;47.41
66962;HTU21D;53897;51.126;5.868;2022-07-19T14:20:27;27.69;47.39
66962;HTU21D;53897;51.126;5.868;2022-07-19T14:22:53;27.71;47.39
66962;HTU21D;53897;51.126;5.868;2022-07-19T14:25:19;27.71;47.40
66962;HTU21D;53897;51.126;5.868;2022-07-19T14:27:48;27.72;47.38
66962;HTU21D;53897;51.126;5.868;2022-07-19T14:30:14;27.73;47.41
66962;HTU21D;53897;51.126;5.868;2022-07-19T14:32:43;27.75;47.45
66962;HTU21D;53897;51.126;5.868;2022-07-19T14:35:09;27.76;47.50
66962;HTU21D;53897;51.126;5.868;2022-07-19T14:37:35;27.78;47.49
66962;HTU21D;53897;51.126;5.868;2022-07-19T14:40:01;27.78;47.48
66962;HTU21D;53897;51.126;5.868;2022-07-19T14:42:26;27.80;47.49
66962;HTU21D;53897;51.126;5.868;2022-07-19T14:44:56;27.81;47.50
66962;HTU21D;53897;51.126;5.868;2022-07-19T14:47:25;27.82;47.49
66962;HTU21D;53897;51.126;5.868;2022-07-19T14:49:50;27.84;47.51
66962;HTU21D;53897;51.126;5.868;2022-07-19T14:52:16;27.84;47.50
66962;HTU21D;53897;51.126;5.868;2022-07-19T14:54:42;27.85;47.51
66962;HTU21D;53897;51.126;5.868;2022-07-19T14:57:08;27.85;47.54
66962;HTU21D;53897;51.126;5.868;2022-07-19T14:59:34;27.87;47.53
66962;HTU21D;53897;51.126;5.868;2022-07-19T15:01:59;27.88;47.52
66962;HTU21D;53897;51.126;5.868;2022-07-19T15:04:25;27.90;47.55
66962;HTU21D;53897;51.126;5.868;2022-07-19T15:06:53;27.90;47.55
66962;HTU21D;53897;51.126;5.868;2022-07-19T15:09:19;27.90;47.44
66962;HTU21D;53897;51.126;5.868;2022-07-19T15:11:44;27.94;47.44
66962;HTU21D;53897;51.126;5.868;2022-07-19T15:14:11;27.94;47.44
66962;HTU21D;53897;51.126;5.868;2022-07-19T15:16:37;27.95;47.49
66962;HTU21D;53897;51.126;5.868;2022-07-19T15:19:03;27.96;47.49
66962;HTU21D;53897;51.126;5.868;2022-07-19T15:21:29;27.96;47.48
66962;HTU21D;53897;51.126;5.868;2022-07-19T15:23:55;27.97;47.46
66962;HTU21D;53897;51.126;5.868;2022-07-19T15:26:20;27.99;47.37
66962;HTU21D;53897;51.126;5.868;2022-07-19T15:28:46;28.00;47.30
66962;HTU21D;53897;51.126;5.868;2022-07-19T15:31:12;28.00;47.30
66962;HTU21D;53897;51.126;5.868;2022-07-19T15:33:37;28.01;47.25